Adolph, Minnesota
Current Conditions -  °F | °C
As of 3:32 PM on Thursday 23 Oct 2014 (Local Time) from KDLH Reporting Station
Scattered Clouds Scattered Clouds  
Wind Chill: 13°   Ceiling: Unl
Heat Index: 13°   Visibility: 10mi
Dew Point:   Wind: 7mph
Humidity: 75%   Direction: 240°WSW
Pressure: 29.94"   Gusts: NA
Location:  46.78°N, 92.28°W
Report Text: KDLH 232032Z 24006KT 10SM SCT010 13/09 A2994 RMK AO2 T01330089
Loading
Personal Weather Stations






























Interactive Weather Map
Tropical Storm Tracking
New forecast layout! Learn more

10-Day Weather Forecast

Advertisements
Track Severe Weather on mobile